createdAt,value
2018-07-06T00:02:37.405Z,74.80
2018-07-06T00:05:23.159Z,74.80
2018-07-06T00:10:48.498Z,74.70
2018-07-06T00:13:34.346Z,74.90
2018-07-06T00:16:20.155Z,75.40
2018-07-06T00:19:05.971Z,75.40
2018-07-06T00:21:51.819Z,75.30
2018-07-06T00:24:37.621Z,75.70
2018-07-06T00:27:23.375Z,76.60
2018-07-06T00:30:09.090Z,76.30
2018-07-06T00:32:54.871Z,75.90
2018-07-06T00:35:40.650Z,75.90
2018-07-06T00:38:26.350Z,76.80
2018-07-06T00:41:12.088Z,77.40
2018-07-06T00:43:57.890Z,78.90
2018-07-06T00:46:43.810Z,78.00
2018-07-06T00:49:29.614Z,77.60
2018-07-06T00:52:15.375Z,77.10
2018-07-06T00:55:01.097Z,77.50
2018-07-06T00:57:51.362Z,77.00
2018-07-06T01:00:37.158Z,77.40
2018-07-06T01:03:22.939Z,77.70
2018-07-06T01:06:08.723Z,78.00
2018-07-06T01:08:54.557Z,78.10
2018-07-06T01:11:40.386Z,78.90
2018-07-06T01:14:26.081Z,78.90
2018-07-06T01:17:15.873Z,78.30
2018-07-06T01:20:01.743Z,78.20
2018-07-06T01:22:47.319Z,78.80
2018-07-06T01:25:33.135Z,78.30
2018-07-06T01:28:19.015Z,78.30
2018-07-06T01:31:04.508Z,78.20
2018-07-06T01:33:50.167Z,78.20
2018-07-06T01:36:35.955Z,78.30
2018-07-06T01:39:21.874Z,78.30
2018-07-06T01:42:07.608Z,78.30
2018-07-06T01:44:53.307Z,77.70
2018-07-06T01:47:38.990Z,77.30
2018-07-06T01:50:24.805Z,77.40
2018-07-06T01:53:10.522Z,77.40
2018-07-06T01:58:36.039Z,77.20
2018-07-06T02:01:21.714Z,77.00
2018-07-06T02:04:07.355Z,76.70
2018-07-06T02:06:52.931Z,76.90
2018-07-06T02:09:38.588Z,77.00
2018-07-06T02:12:24.396Z,76.80
2018-07-06T02:15:10.090Z,76.80
2018-07-06T02:17:55.773Z,76.70
2018-07-06T02:20:41.446Z,77.10
2018-07-06T02:23:27.390Z,78.00
2018-07-06T02:26:13.008Z,77.70
2018-07-06T02:28:58.746Z,77.80
2018-07-06T02:31:44.555Z,78.00
2018-07-06T02:34:30.192Z,78.10
2018-07-06T02:37:15.890Z,77.70
2018-07-06T02:40:01.650Z,78.10
2018-07-06T02:42:47.470Z,78.30
2018-07-06T02:45:33.262Z,78.00
2018-07-06T02:48:19.002Z,78.20
2018-07-06T02:51:04.743Z,79.30
2018-07-06T02:53:50.294Z,78.80
2018-07-06T02:56:36.143Z,78.60
2018-07-06T02:59:21.849Z,78.60
2018-07-06T03:02:07.782Z,78.60
2018-07-06T03:04:53.531Z,78.40
2018-07-06T03:07:39.257Z,78.70
2018-07-06T03:10:25.002Z,78.70
2018-07-06T03:13:10.697Z,79.40
2018-07-06T03:15:56.490Z,79.00
2018-07-06T03:18:42.236Z,79.20
2018-07-06T03:21:28.054Z,78.80
2018-07-06T03:26:53.371Z,78.80
2018-07-06T03:29:39.190Z,78.90
2018-07-06T03:32:24.771Z,79.20
2018-07-06T03:35:10.426Z,79.00
2018-07-06T03:37:56.229Z,78.80
2018-07-06T03:40:42.043Z,79.20
2018-07-06T03:43:27.790Z,79.20
2018-07-06T03:46:13.454Z,78.90
2018-07-06T03:48:59.303Z,78.90
2018-07-06T03:51:45.110Z,79.30
2018-07-06T03:57:10.515Z,80.20
2018-07-06T03:59:56.234Z,80.30
2018-07-06T04:02:41.991Z,80.50
2018-07-06T04:05:27.719Z,80.20
2018-07-06T04:08:13.532Z,80.40
2018-07-06T04:10:59.231Z,81.20
2018-07-06T04:13:45.079Z,81.10
2018-07-06T04:16:30.827Z,81.30
2018-07-06T04:19:16.707Z,81.60
2018-07-06T04:22:02.446Z,82.30
2018-07-06T04:24:48.176Z,81.80
2018-07-06T04:27:33.971Z,83.40
2018-07-06T04:30:19.626Z,82.70
2018-07-06T04:33:05.492Z,82.70
2018-07-06T04:35:51.313Z,83.20
2018-07-06T04:38:37.089Z,83.10
2018-07-06T04:41:22.698Z,83.00
2018-07-06T04:44:08.438Z,83.40
2018-07-06T04:46:54.154Z,83.70
2018-07-06T04:49:39.938Z,84.50
2018-07-06T04:52:25.728Z,84.20
2018-07-06T04:55:11.438Z,84.70
2018-07-06T04:57:57.187Z,85.10
2018-07-06T05:00:42.972Z,84.40
2018-07-06T05:03:28.777Z,85.20
2018-07-06T05:06:14.654Z,85.10
2018-07-06T05:09:00.506Z,85.10
2018-07-06T05:11:46.443Z,84.70
2018-07-06T05:14:32.360Z,85.20
2018-07-06T05:17:18.119Z,85.50
2018-07-06T05:20:04.087Z,85.40
2018-07-06T05:22:49.760Z,85.40
2018-07-06T05:25:35.463Z,85.80
2018-07-06T05:28:21.287Z,85.90
2018-07-06T05:31:07.066Z,85.60
2018-07-06T05:33:52.701Z,85.80
2018-07-06T05:36:38.331Z,86.10
2018-07-06T05:39:24.107Z,85.10
2018-07-06T05:42:09.802Z,85.40
2018-07-06T05:44:55.458Z,86.20
2018-07-06T05:47:41.221Z,85.80
2018-07-06T05:50:26.919Z,85.70
2018-07-06T05:53:12.699Z,85.10
2018-07-06T05:55:58.584Z,85.10
2018-07-06T05:58:44.661Z,85.90
2018-07-06T06:01:30.366Z,85.90
2018-07-06T06:04:16.094Z,85.50
2018-07-06T06:07:01.826Z,84.90
2018-07-06T06:09:36.138Z,85.20
2018-07-06T06:12:10.497Z,84.30
2018-07-06T06:14:44.674Z,84.10
2018-07-06T06:17:19.099Z,84.40
2018-07-06T06:22:27.434Z,84.50
2018-07-06T06:25:01.747Z,84.00
2018-07-06T06:27:36.061Z,83.80
2018-07-06T06:30:10.515Z,84.70
2018-07-06T06:32:44.806Z,83.90
2018-07-06T06:35:19.042Z,83.80
2018-07-06T06:37:53.429Z,83.40
2018-07-06T06:40:27.754Z,82.90
2018-07-06T06:43:02.083Z,83.00
2018-07-06T06:45:36.284Z,83.60
2018-07-06T06:48:10.574Z,83.20
2018-07-06T06:50:45.031Z,83.00
2018-07-06T06:53:19.255Z,82.70
2018-07-06T06:55:53.509Z,82.50
2018-07-06T06:58:27.927Z,82.50
2018-07-06T07:01:02.281Z,82.00
2018-07-06T07:03:36.571Z,83.00
2018-07-06T07:06:10.721Z,83.70
2018-07-06T07:08:45.059Z,83.60
2018-07-06T07:11:19.379Z,83.10
2018-07-06T07:13:53.860Z,83.20
2018-07-06T07:16:28.034Z,83.60
2018-07-06T07:19:02.345Z,83.80
2018-07-06T07:21:36.542Z,83.30
2018-07-06T07:24:10.819Z,83.30
2018-07-06T07:26:45.142Z,84.00
2018-07-06T07:29:19.377Z,84.30
2018-07-06T07:31:53.546Z,85.30
2018-07-06T07:37:02.010Z,89.00
2018-07-06T07:39:36.222Z,88.80
2018-07-06T07:44:44.680Z,89.60
2018-07-06T07:47:19.330Z,90.00
2018-07-06T07:49:53.537Z,89.50
2018-07-06T07:52:39.514Z,89.90
2018-07-06T07:55:13.806Z,89.20
2018-07-06T08:00:22.204Z,88.60
2018-07-06T08:02:56.548Z,87.20
2018-07-06T08:05:30.884Z,87.00
2018-07-06T08:08:05.357Z,87.50
2018-07-06T08:13:13.774Z,86.20
2018-07-06T08:15:48.696Z,86.00
2018-07-06T08:18:22.961Z,85.30
2018-07-06T08:20:57.367Z,85.80
2018-07-06T08:26:05.923Z,85.10
2018-07-06T08:28:40.198Z,83.80
2018-07-06T08:31:14.359Z,82.90
2018-07-06T08:36:01.919Z,83.10
2018-07-06T08:38:36.270Z,82.80
2018-07-06T08:41:10.580Z,80.10
2018-07-06T08:43:44.871Z,80.40
2018-07-06T08:46:19.161Z,80.40
2018-07-06T08:48:53.510Z,79.30
2018-07-06T08:51:27.915Z,78.70
2018-07-06T08:54:02.351Z,78.70
2018-07-06T08:56:36.971Z,78.10
2018-07-06T08:59:11.325Z,79.10
2018-07-06T09:01:45.626Z,79.40
2018-07-06T09:04:20.079Z,79.50
2018-07-06T09:06:54.222Z,79.00
2018-07-06T09:09:28.952Z,78.70
2018-07-06T09:12:03.575Z,79.00
2018-07-06T09:14:37.750Z,77.90
2018-07-06T09:17:13.609Z,77.60
2018-07-06T09:19:48.989Z,77.20
2018-07-06T09:22:23.141Z,77.70
2018-07-06T09:24:58.815Z,77.30
2018-07-06T09:27:33.150Z,75.60
2018-07-06T09:30:07.480Z,72.60
2018-07-06T09:32:41.850Z,71.30
2018-07-06T09:35:16.272Z,72.00
2018-07-06T09:37:50.593Z,70.50
2018-07-06T09:40:24.843Z,71.20
2018-07-06T09:42:59.167Z,70.10
2018-07-06T09:45:33.642Z,70.70
2018-07-06T09:48:07.969Z,70.50
2018-07-06T09:50:42.270Z,71.20
2018-07-06T09:53:16.690Z,71.80
2018-07-06T09:55:51.059Z,71.70
2018-07-06T09:58:25.511Z,72.70
2018-07-06T10:00:59.974Z,71.90
2018-07-06T10:03:34.338Z,72.20
2018-07-06T10:06:08.707Z,71.50
2018-07-06T10:08:43.066Z,71.70
2018-07-06T10:11:17.401Z,71.70
2018-07-06T10:13:51.857Z,70.20
2018-07-06T10:16:26.110Z,70.20
2018-07-06T10:19:00.366Z,69.30
2018-07-06T10:21:34.547Z,66.20
2018-07-06T10:24:08.855Z,65.90
2018-07-06T10:26:43.286Z,65.70
2018-07-06T10:30:28.510Z,66.30
2018-07-06T10:33:02.939Z,67.50
2018-07-06T10:35:37.214Z,65.50
2018-07-06T10:38:11.430Z,65.30
2018-07-06T10:40:45.678Z,65.70
2018-07-06T10:43:19.965Z,65.90
2018-07-06T10:45:54.294Z,61.50
2018-07-06T10:48:28.642Z,58.40
2018-07-06T10:51:03.275Z,58.90
2018-07-06T10:53:37.521Z,60.00
2018-07-06T10:56:11.687Z,61.80
2018-07-06T11:01:20.010Z,59.90
2018-07-06T11:03:54.162Z,62.20
2018-07-06T11:06:28.499Z,62.40
2018-07-06T11:09:02.983Z,61.70
2018-07-06T11:11:37.222Z,60.20
2018-07-06T11:14:11.507Z,61.30
2018-07-06T11:16:45.824Z,58.90
2018-07-06T11:19:20.218Z,58.90
2018-07-06T11:21:54.535Z,58.50
2018-07-06T11:24:28.781Z,57.70
2018-07-06T11:27:03.198Z,57.00
2018-07-06T11:29:37.486Z,57.30
2018-07-06T11:32:11.864Z,56.20
2018-07-06T11:34:46.026Z,56.30
2018-07-06T11:37:20.274Z,56.40
2018-07-06T11:39:54.558Z,55.00
2018-07-06T11:42:28.815Z,55.10
2018-07-06T11:45:03.114Z,57.00
2018-07-06T11:47:37.566Z,55.30
2018-07-06T11:50:11.862Z,55.60
2018-07-06T11:52:46.163Z,54.30
2018-07-06T11:55:21.161Z,55.10
2018-07-06T11:57:55.539Z,53.40
2018-07-06T12:00:29.938Z,53.50
2018-07-06T12:03:04.241Z,53.00
2018-07-06T12:05:38.803Z,53.60
2018-07-06T12:08:13.174Z,51.50
2018-07-06T12:10:47.346Z,50.80
2018-07-06T12:13:21.615Z,51.00
2018-07-06T12:15:55.881Z,51.80
2018-07-06T12:18:30.680Z,52.70
2018-07-06T12:21:04.985Z,51.80
2018-07-06T12:23:39.212Z,53.10
2018-07-06T12:26:13.429Z,53.50
2018-07-06T12:28:47.637Z,51.90
2018-07-06T12:31:22.146Z,50.90
2018-07-06T12:33:56.307Z,48.80
2018-07-06T12:36:30.611Z,46.30
2018-07-06T12:39:05.452Z,46.50
2018-07-06T12:41:39.760Z,46.80
2018-07-06T12:44:13.870Z,46.10
2018-07-06T12:46:48.166Z,47.80
2018-07-06T12:49:22.306Z,46.00
2018-07-06T12:51:56.666Z,46.80
2018-07-06T12:54:30.948Z,46.30
2018-07-06T12:57:05.134Z,44.50
2018-07-06T12:59:39.550Z,44.40
2018-07-06T13:02:13.913Z,43.80
2018-07-06T13:04:48.390Z,44.20
2018-07-06T13:07:22.710Z,45.70
2018-07-06T13:12:37.442Z,45.20
2018-07-06T13:15:11.721Z,44.80
2018-07-06T13:17:46.088Z,45.20
2018-07-06T13:20:20.241Z,46.00
2018-07-06T13:22:54.546Z,44.50
2018-07-06T13:25:28.823Z,44.20
2018-07-06T13:28:03.270Z,42.50
2018-07-06T13:30:37.626Z,41.10
2018-07-06T13:33:11.898Z,41.50
2018-07-06T13:35:46.108Z,41.30
2018-07-06T13:38:20.446Z,43.30
2018-07-06T13:40:54.768Z,39.10
2018-07-06T13:43:29.118Z,38.90
2018-07-06T13:46:03.412Z,38.00
2018-07-06T13:48:37.698Z,37.90
2018-07-06T13:51:11.959Z,39.10
2018-07-06T13:53:46.286Z,34.70
2018-07-06T13:56:20.810Z,29.90
2018-07-06T13:58:55.154Z,31.70
2018-07-06T14:01:29.563Z,34.40
2018-07-06T14:04:03.757Z,34.50
2018-07-06T14:06:38.721Z,35.00
2018-07-06T14:09:13.209Z,33.90
2018-07-06T14:11:47.603Z,34.00
2018-07-06T14:14:21.830Z,35.60
2018-07-06T14:16:56.149Z,33.90
2018-07-06T14:19:30.475Z,34.30
2018-07-06T14:22:04.716Z,34.20
2018-07-06T14:24:38.988Z,34.70
2018-07-06T14:29:47.331Z,33.80
2018-07-06T14:32:21.626Z,32.50
2018-07-06T14:34:56.130Z,29.80
2018-07-06T14:37:30.375Z,31.90
2018-07-06T14:40:04.814Z,32.30
2018-07-06T14:42:39.046Z,32.30
2018-07-06T14:45:13.585Z,32.20
2018-07-06T14:47:47.843Z,30.90
2018-07-06T14:50:22.137Z,30.00
2018-07-06T14:52:56.415Z,30.70
2018-07-06T14:55:30.697Z,29.80
2018-07-06T15:00:39.021Z,31.00
2018-07-06T15:03:13.394Z,30.70
2018-07-06T15:05:47.748Z,29.40
2018-07-06T15:08:22.221Z,28.30
2018-07-06T15:10:56.396Z,28.90
2018-07-06T15:13:30.915Z,28.70
2018-07-06T15:16:05.671Z,28.30
2018-07-06T15:18:39.815Z,27.90
2018-07-06T15:21:14.500Z,27.40
2018-07-06T15:23:48.818Z,26.90
2018-07-06T15:26:23.050Z,27.60
2018-07-06T15:28:57.434Z,27.30
2018-07-06T15:31:31.638Z,26.30
2018-07-06T15:34:05.926Z,26.40
2018-07-06T15:36:40.174Z,26.90
2018-07-06T15:41:48.796Z,26.60
2018-07-06T15:44:23.153Z,27.00
2018-07-06T15:46:57.446Z,26.40
2018-07-06T15:49:31.787Z,26.80
2018-07-06T15:52:06.237Z,26.40
2018-07-06T15:54:40.530Z,26.00
2018-07-06T15:57:15.184Z,26.40
2018-07-06T15:59:49.354Z,25.90
2018-07-06T16:02:23.654Z,27.00
2018-07-06T16:04:57.909Z,26.60
2018-07-06T16:07:32.050Z,27.00
2018-07-06T16:10:06.417Z,26.40
2018-07-06T16:12:40.758Z,27.20
2018-07-06T16:15:15.015Z,27.00
2018-07-06T16:17:49.341Z,26.70
2018-07-06T16:20:23.611Z,26.70
2018-07-06T16:22:57.831Z,26.70
2018-07-06T16:25:32.147Z,27.60
2018-07-06T16:28:06.464Z,27.90
2018-07-06T16:30:40.773Z,27.70
2018-07-06T16:33:15.098Z,27.80
2018-07-06T16:35:49.449Z,27.90
2018-07-06T16:38:23.802Z,27.70
2018-07-06T16:40:58.044Z,28.30
2018-07-06T16:43:32.558Z,28.20
2018-07-06T16:46:06.960Z,28.40
2018-07-06T16:48:41.255Z,28.20
2018-07-06T16:51:15.581Z,28.20
2018-07-06T16:53:49.781Z,29.00
2018-07-06T16:56:24.082Z,28.60
2018-07-06T16:58:58.310Z,28.50
2018-07-06T17:01:32.774Z,29.60
2018-07-06T17:04:07.050Z,29.50
2018-07-06T17:06:41.323Z,29.90
2018-07-06T17:09:15.649Z,30.50
2018-07-06T17:11:49.813Z,30.00
2018-07-06T17:14:24.188Z,30.60
2018-07-06T17:16:58.555Z,30.50
2018-07-06T17:19:32.865Z,30.00
2018-07-06T17:22:07.365Z,29.80
2018-07-06T17:24:41.775Z,30.00
2018-07-06T17:27:15.995Z,29.80
2018-07-06T17:29:50.348Z,30.80
2018-07-06T17:32:24.774Z,30.70
2018-07-06T17:34:59.046Z,29.50
2018-07-06T17:37:33.310Z,29.80
2018-07-06T17:40:07.561Z,29.80
2018-07-06T17:42:41.817Z,29.50
2018-07-06T17:45:16.113Z,30.20
2018-07-06T17:47:50.461Z,30.30
2018-07-06T17:50:24.812Z,30.20
2018-07-06T17:55:33.312Z,30.40
2018-07-06T17:58:07.574Z,31.70
2018-07-06T18:00:41.769Z,31.30
2018-07-06T18:03:16.099Z,31.00
2018-07-06T18:05:50.434Z,31.60
2018-07-06T18:08:24.619Z,30.80
2018-07-06T18:10:58.953Z,31.30
2018-07-06T18:13:33.331Z,31.60
2018-07-06T18:16:07.582Z,31.70
2018-07-06T18:18:41.811Z,32.30
2018-07-06T18:21:16.388Z,32.40
2018-07-06T18:23:50.611Z,32.80
2018-07-06T18:26:24.770Z,33.50
2018-07-06T18:28:59.121Z,33.70
2018-07-06T18:31:33.546Z,34.00
2018-07-06T18:36:41.740Z,34.30
2018-07-06T18:39:15.997Z,34.30
2018-07-06T18:41:50.606Z,34.60
2018-07-06T18:44:26.046Z,35.10
2018-07-06T18:47:04.243Z,35.00
2018-07-06T18:52:19.050Z,35.30
2018-07-06T18:54:53.317Z,35.70
2018-07-06T18:57:27.639Z,36.10
2018-07-06T19:00:01.944Z,35.50
2018-07-06T19:02:36.574Z,36.40
2018-07-06T19:05:11.004Z,36.00
2018-07-06T19:07:45.333Z,35.70
2018-07-06T19:10:19.682Z,36.00
2018-07-06T19:12:54.100Z,36.40
2018-07-06T19:15:28.322Z,36.70
2018-07-06T19:18:02.630Z,36.50
2018-07-06T19:20:37.152Z,36.50
2018-07-06T19:23:11.345Z,35.70
2018-07-06T19:25:45.650Z,36.40
2018-07-06T19:28:20.063Z,37.00
2018-07-06T19:30:54.488Z,36.70
2018-07-06T19:33:28.874Z,36.90
2018-07-06T19:36:03.244Z,36.80
2018-07-06T19:38:37.479Z,37.10
2018-07-06T19:41:11.777Z,37.00
2018-07-06T19:43:46.078Z,36.90
2018-07-06T19:46:20.354Z,37.30
2018-07-06T19:48:54.661Z,37.60
2018-07-06T19:51:29.053Z,37.50
2018-07-06T19:54:04.672Z,36.80
2018-07-06T19:56:39.047Z,37.10
2018-07-06T19:59:13.422Z,37.10
2018-07-06T20:01:47.859Z,37.30
2018-07-06T20:04:22.084Z,37.90
2018-07-06T20:06:56.553Z,38.10
2018-07-06T20:09:30.790Z,38.10
2018-07-06T20:12:05.254Z,37.40
2018-07-06T20:14:39.618Z,37.70
2018-07-06T20:17:14.183Z,37.70
2018-07-06T20:19:48.760Z,38.10
2018-07-06T20:22:22.972Z,38.00
2018-07-06T20:24:57.285Z,37.60
2018-07-06T20:27:31.691Z,38.10
2018-07-06T20:30:05.870Z,38.10
2018-07-06T20:32:40.618Z,38.10
2018-07-06T20:35:14.977Z,37.90
2018-07-06T20:37:49.267Z,38.00
2018-07-06T20:40:23.569Z,38.30
2018-07-06T20:42:57.846Z,38.60
2018-07-06T20:45:32.202Z,38.40
2018-07-06T20:48:06.350Z,39.00
2018-07-06T20:53:14.910Z,39.00
2018-07-06T20:55:49.154Z,39.30
2018-07-06T20:58:23.599Z,39.80
2018-07-06T21:00:57.965Z,40.20
2018-07-06T21:03:32.240Z,40.60
2018-07-06T21:06:06.542Z,40.60
2018-07-06T21:08:40.807Z,41.00
2018-07-06T21:11:15.164Z,40.80
2018-07-06T21:13:49.385Z,41.30
2018-07-06T21:16:24.093Z,41.50
2018-07-06T21:18:58.284Z,41.90
2018-07-06T21:21:32.555Z,42.50
2018-07-06T21:24:06.883Z,42.70
2018-07-06T21:26:41.238Z,43.20
2018-07-06T21:29:15.790Z,43.00
2018-07-06T21:31:50.085Z,43.90
2018-07-06T21:34:24.477Z,43.80
2018-07-06T21:36:58.794Z,44.40
2018-07-06T21:39:33.090Z,45.00
2018-07-06T21:42:07.227Z,45.20
2018-07-06T21:44:41.534Z,45.30
2018-07-06T21:47:15.686Z,45.70
2018-07-06T21:49:50.012Z,46.10
2018-07-06T21:52:24.357Z,45.70
2018-07-06T21:54:58.674Z,46.30
2018-07-06T21:57:32.875Z,46.90
2018-07-06T22:00:07.333Z,47.10
2018-07-06T22:02:41.634Z,46.70
2018-07-06T22:05:15.883Z,47.10
2018-07-06T22:07:50.340Z,47.90
2018-07-06T22:10:24.630Z,47.30
2018-07-06T22:12:59.065Z,47.20
2018-07-06T22:15:38.695Z,47.70
2018-07-06T22:18:14.843Z,47.80
2018-07-06T22:20:49.613Z,48.00
2018-07-06T22:23:23.833Z,48.10
2018-07-06T22:25:58.145Z,48.00
2018-07-06T22:28:32.421Z,47.80
2018-07-06T22:31:06.820Z,48.20
2018-07-06T22:33:41.105Z,48.60
2018-07-06T22:36:15.343Z,47.80
2018-07-06T22:38:49.591Z,49.00
2018-07-06T22:41:24.004Z,49.10
2018-07-06T22:43:58.442Z,49.80
2018-07-06T22:46:32.631Z,50.40
2018-07-06T22:49:07.025Z,51.00
2018-07-06T22:51:41.410Z,51.10
2018-07-06T22:54:15.878Z,51.50
2018-07-06T22:56:50.181Z,51.80
2018-07-06T22:59:24.557Z,52.50
2018-07-06T23:01:58.770Z,53.50
2018-07-06T23:04:33.119Z,53.30
2018-07-06T23:07:07.441Z,53.70
2018-07-06T23:09:41.798Z,54.10
2018-07-06T23:12:16.125Z,54.60
2018-07-06T23:14:50.480Z,55.00
2018-07-06T23:17:24.683Z,55.40
2018-07-06T23:19:59.021Z,55.60
2018-07-06T23:22:55.714Z,55.40
2018-07-06T23:25:30.817Z,56.10
2018-07-06T23:28:05.118Z,56.20
2018-07-06T23:30:39.553Z,56.60
2018-07-06T23:33:13.966Z,57.00
2018-07-06T23:35:48.258Z,57.10
2018-07-06T23:38:22.779Z,57.70
2018-07-06T23:40:56.958Z,57.80
2018-07-06T23:43:31.186Z,57.40
2018-07-06T23:46:05.514Z,57.60
2018-07-06T23:48:39.782Z,56.50
2018-07-06T23:51:14.250Z,56.60
2018-07-06T23:53:48.539Z,57.30
2018-07-06T23:56:23.049Z,58.20
2018-07-06T23:58:57.583Z,58.40
